EHGG

Eelde Airport

Groningen, The Netherlands
METAR EHGG 211255Z AUTO 05008KT 020V090 9999 FEW028 04/M03 Q1027 NOSIG
Observed Flight Rules
Feb-21 @ 12:55 UTC (11 minutes ago) Visual Flight Rules
Wind Visibility Clouds
50° at 8 knots 10,000+ meters
  • Few at 2,800' AGL
Temperatures Readings
Current 4°C / 39°F
Dewpoint -3°C / 27°F
Humidity 61%
Altimeter 30.32" Hg
Pressure 1027 hPa
Elevation 4
METAR EHGG 211255Z AUTO 05008KT 020V090 9999 FEW028 04/M03 Q1027 NOSIG
Observed Flight Rules
Feb-21 @ 12:55 UTC
(11 minutes ago)
VFR
Wind Visibility
50° at 8 knots 10,000+ meters
Clouds
  • Few at 2,800' AGL
Temperature Dewpoint
4°C / 39°F -3°C / 27°F
Humidity Altimeter Pressure
61% 30.32" Hg 1027 hPa